sensor_id;sensor_type;location;lat;lon;timestamp;temperature;humidity
69436;SHT31;56625;54.322;18.582;2023-06-22T00:01:21;20.43;73.70
69436;SHT31;56625;54.322;18.582;2023-06-22T00:03:48;20.42;73.72
69436;SHT31;56625;54.322;18.582;2023-06-22T00:06:15;20.38;73.90
69436;SHT31;56625;54.322;18.582;2023-06-22T00:08:42;20.34;73.92
69436;SHT31;56625;54.322;18.582;2023-06-22T00:11:09;20.31;73.95
69436;SHT31;56625;54.322;18.582;2023-06-22T00:13:35;20.29;74.04
69436;SHT31;56625;54.322;18.582;2023-06-22T00:16:02;20.25;74.18
69436;SHT31;56625;54.322;18.582;2023-06-22T00:18:29;20.23;74.13
69436;SHT31;56625;54.322;18.582;2023-06-22T00:20:56;20.25;74.03
69436;SHT31;56625;54.322;18.582;2023-06-22T00:23:24;20.24;74.23
69436;SHT31;56625;54.322;18.582;2023-06-22T00:25:51;20.18;74.42
69436;SHT31;56625;54.322;18.582;2023-06-22T00:28:18;20.12;74.57
69436;SHT31;56625;54.322;18.582;2023-06-22T00:30:45;20.09;74.54
69436;SHT31;56625;54.322;18.582;2023-06-22T00:33:12;20.03;74.85
69436;SHT31;56625;54.322;18.582;2023-06-22T00:35:39;19.96;75.09
69436;SHT31;56625;54.322;18.582;2023-06-22T00:38:07;19.90;75.31
69436;SHT31;56625;54.322;18.582;2023-06-22T00:40:34;19.85;75.49
69436;SHT31;56625;54.322;18.582;2023-06-22T00:43:01;19.78;75.78
69436;SHT31;56625;54.322;18.582;2023-06-22T00:45:28;19.74;75.78
69436;SHT31;56625;54.322;18.582;2023-06-22T00:47:58;19.69;76.06
69436;SHT31;56625;54.322;18.582;2023-06-22T00:50:27;19.63;76.46
69436;SHT31;56625;54.322;18.582;2023-06-22T00:53:00;19.58;76.70
69436;SHT31;56625;54.322;18.582;2023-06-22T00:55:39;19.53;76.82
69436;SHT31;56625;54.322;18.582;2023-06-22T00:58:13;19.47;77.09
69436;SHT31;56625;54.322;18.582;2023-06-22T01:00:40;19.41;77.38
69436;SHT31;56625;54.322;18.582;2023-06-22T01:03:08;19.34;77.66
69436;SHT31;56625;54.322;18.582;2023-06-22T01:05:36;19.28;77.96
69436;SHT31;56625;54.322;18.582;2023-06-22T01:16:08;19.06;78.87
69436;SHT31;56625;54.322;18.582;2023-06-22T01:18:57;19.00;79.07
69436;SHT31;56625;54.322;18.582;2023-06-22T01:21:41;18.95;79.36
69436;SHT31;56625;54.322;18.582;2023-06-22T01:24:15;18.91;79.49
69436;SHT31;56625;54.322;18.582;2023-06-22T01:26:57;18.85;79.74
69436;SHT31;56625;54.322;18.582;2023-06-22T01:29:51;18.81;79.98
69436;SHT31;56625;54.322;18.582;2023-06-22T01:32:30;18.75;80.20
69436;SHT31;56625;54.322;18.582;2023-06-22T01:35:01;18.70;80.40
69436;SHT31;56625;54.322;18.582;2023-06-22T01:37:33;18.66;80.63
69436;SHT31;56625;54.322;18.582;2023-06-22T01:40:02;18.62;80.82
69436;SHT31;56625;54.322;18.582;2023-06-22T01:42:32;18.57;80.97
69436;SHT31;56625;54.322;18.582;2023-06-22T01:45:00;18.53;81.15
69436;SHT31;56625;54.322;18.582;2023-06-22T01:47:28;18.49;81.34
69436;SHT31;56625;54.322;18.582;2023-06-22T01:49:56;18.46;81.46
69436;SHT31;56625;54.322;18.582;2023-06-22T01:52:23;18.42;81.63
69436;SHT31;56625;54.322;18.582;2023-06-22T01:54:50;18.40;81.80
69436;SHT31;56625;54.322;18.582;2023-06-22T01:57:17;18.36;81.99
69436;SHT31;56625;54.322;18.582;2023-06-22T01:59:48;18.33;82.21
69436;SHT31;56625;54.322;18.582;2023-06-22T02:02:40;18.29;82.28
69436;SHT31;56625;54.322;18.582;2023-06-22T02:05:31;18.26;82.59
69436;SHT31;56625;54.322;18.582;2023-06-22T02:08:17;18.23;82.72
69436;SHT31;56625;54.322;18.582;2023-06-22T02:10:50;18.21;82.73
69436;SHT31;56625;54.322;18.582;2023-06-22T02:13:19;18.19;82.93
69436;SHT31;56625;54.322;18.582;2023-06-22T02:15:46;18.17;83.03
69436;SHT31;56625;54.322;18.582;2023-06-22T02:18:14;18.13;83.26
69436;SHT31;56625;54.322;18.582;2023-06-22T02:20:41;18.11;83.30
69436;SHT31;56625;54.322;18.582;2023-06-22T02:23:08;18.10;83.39
69436;SHT31;56625;54.322;18.582;2023-06-22T02:25:35;18.08;83.49
69436;SHT31;56625;54.322;18.582;2023-06-22T02:28:02;18.06;83.72
69436;SHT31;56625;54.322;18.582;2023-06-22T02:30:30;18.05;83.76
69436;SHT31;56625;54.322;18.582;2023-06-22T02:32:57;18.05;83.75
69436;SHT31;56625;54.322;18.582;2023-06-22T02:35:27;18.05;83.85
69436;SHT31;56625;54.322;18.582;2023-06-22T02:37:58;18.04;84.00
69436;SHT31;56625;54.322;18.582;2023-06-22T02:40:27;18.03;84.13
69436;SHT31;56625;54.322;18.582;2023-06-22T02:42:56;18.04;84.18
69436;SHT31;56625;54.322;18.582;2023-06-22T02:45:29;18.05;84.38
69436;SHT31;56625;54.322;18.582;2023-06-22T02:47:55;18.06;84.56
69436;SHT31;56625;54.322;18.582;2023-06-22T02:50:22;18.07;84.56
69436;SHT31;56625;54.322;18.582;2023-06-22T02:52:49;18.09;84.58
69436;SHT31;56625;54.322;18.582;2023-06-22T02:55:16;18.17;84.51
69436;SHT31;56625;54.322;18.582;2023-06-22T02:57:43;18.29;84.27
69436;SHT31;56625;54.322;18.582;2023-06-22T03:00:12;18.39;84.04
69436;SHT31;56625;54.322;18.582;2023-06-22T03:02:44;18.49;83.77
69436;SHT31;56625;54.322;18.582;2023-06-22T03:05:12;18.60;83.43
69436;SHT31;56625;54.322;18.582;2023-06-22T03:07:40;18.68;83.14
69436;SHT31;56625;54.322;18.582;2023-06-22T03:10:11;18.73;82.91
69436;SHT31;56625;54.322;18.582;2023-06-22T03:12:40;18.81;82.70
69436;SHT31;56625;54.322;18.582;2023-06-22T03:15:12;18.90;82.45
69436;SHT31;56625;54.322;18.582;2023-06-22T03:17:39;19.02;82.07
69436;SHT31;56625;54.322;18.582;2023-06-22T03:20:07;19.13;81.62
69436;SHT31;56625;54.322;18.582;2023-06-22T03:22:37;19.26;81.21
69436;SHT31;56625;54.322;18.582;2023-06-22T03:25:05;19.38;80.73
69436;SHT31;56625;54.322;18.582;2023-06-22T03:27:37;19.55;80.24
69436;SHT31;56625;54.322;18.582;2023-06-22T03:30:03;19.74;79.60
69436;SHT31;56625;54.322;18.582;2023-06-22T03:32:32;19.90;78.79
69436;SHT31;56625;54.322;18.582;2023-06-22T03:34:59;20.00;78.31
69436;SHT31;56625;54.322;18.582;2023-06-22T03:37:26;20.09;77.82
69436;SHT31;56625;54.322;18.582;2023-06-22T03:39:53;20.20;77.34
69436;SHT31;56625;54.322;18.582;2023-06-22T03:42:20;20.27;77.01
69436;SHT31;56625;54.322;18.582;2023-06-22T03:44:47;20.35;76.69
69436;SHT31;56625;54.322;18.582;2023-06-22T03:47:13;20.43;76.28
69436;SHT31;56625;54.322;18.582;2023-06-22T03:49:40;20.49;75.87
69436;SHT31;56625;54.322;18.582;2023-06-22T03:52:07;20.52;75.78
69436;SHT31;56625;54.322;18.582;2023-06-22T03:54:34;20.52;75.56
69436;SHT31;56625;54.322;18.582;2023-06-22T03:57:00;20.58;75.51
69436;SHT31;56625;54.322;18.582;2023-06-22T03:59:27;20.70;75.16
69436;SHT31;56625;54.322;18.582;2023-06-22T04:01:54;20.81;74.78
69436;SHT31;56625;54.322;18.582;2023-06-22T04:04:20;20.81;74.36
69436;SHT31;56625;54.322;18.582;2023-06-22T04:06:47;20.73;74.48
69436;SHT31;56625;54.322;18.582;2023-06-22T04:09:14;20.63;74.70
69436;SHT31;56625;54.322;18.582;2023-06-22T04:11:40;20.61;74.93
69436;SHT31;56625;54.322;18.582;2023-06-22T04:14:07;20.62;74.66
69436;SHT31;56625;54.322;18.582;2023-06-22T04:16:34;20.59;74.55
69436;SHT31;56625;54.322;18.582;2023-06-22T04:19:00;20.58;74.38
69436;SHT31;56625;54.322;18.582;2023-06-22T04:21:27;20.67;74.30
69436;SHT31;56625;54.322;18.582;2023-06-22T04:23:53;20.64;74.11
69436;SHT31;56625;54.322;18.582;2023-06-22T04:26:20;20.52;74.48
69436;SHT31;56625;54.322;18.582;2023-06-22T04:28:47;20.40;74.71
69436;SHT31;56625;54.322;18.582;2023-06-22T04:31:18;20.35;74.88
69436;SHT31;56625;54.322;18.582;2023-06-22T04:33:47;20.40;74.86
69436;SHT31;56625;54.322;18.582;2023-06-22T04:36:14;20.41;74.76
69436;SHT31;56625;54.322;18.582;2023-06-22T04:38:41;20.36;74.88
69436;SHT31;56625;54.322;18.582;2023-06-22T04:41:08;20.29;74.97
69436;SHT31;56625;54.322;18.582;2023-06-22T04:43:40;20.19;75.18
69436;SHT31;56625;54.322;18.582;2023-06-22T04:46:07;20.16;75.29
69436;SHT31;56625;54.322;18.582;2023-06-22T04:48:33;20.09;75.28
69436;SHT31;56625;54.322;18.582;2023-06-22T04:51:01;20.05;75.48
69436;SHT31;56625;54.322;18.582;2023-06-22T04:53:31;20.00;75.59
69436;SHT31;56625;54.322;18.582;2023-06-22T04:55:58;19.94;75.81
69436;SHT31;56625;54.322;18.582;2023-06-22T04:58:24;19.93;75.84
69436;SHT31;56625;54.322;18.582;2023-06-22T05:00:54;19.92;75.86
69436;SHT31;56625;54.322;18.582;2023-06-22T05:03:24;19.92;75.75
69436;SHT31;56625;54.322;18.582;2023-06-22T05:05:52;19.90;75.78
69436;SHT31;56625;54.322;18.582;2023-06-22T05:08:20;19.94;75.61
69436;SHT31;56625;54.322;18.582;2023-06-22T05:10:46;19.95;75.50
69436;SHT31;56625;54.322;18.582;2023-06-22T05:13:30;19.97;75.30
69436;SHT31;56625;54.322;18.582;2023-06-22T05:15:57;20.01;75.13
69436;SHT31;56625;54.322;18.582;2023-06-22T05:18:28;20.13;74.89
69436;SHT31;56625;54.322;18.582;2023-06-22T05:20:57;20.23;74.54
69436;SHT31;56625;54.322;18.582;2023-06-22T05:23:25;20.41;73.78
69436;SHT31;56625;54.322;18.582;2023-06-22T05:25:51;20.51;73.58
69436;SHT31;56625;54.322;18.582;2023-06-22T05:28:18;20.62;73.04
69436;SHT31;56625;54.322;18.582;2023-06-22T05:30:49;20.66;72.39
69436;SHT31;56625;54.322;18.582;2023-06-22T05:33:15;20.68;71.84
69436;SHT31;56625;54.322;18.582;2023-06-22T05:35:42;20.67;71.09
69436;SHT31;56625;54.322;18.582;2023-06-22T05:38:08;20.60;71.08
69436;SHT31;56625;54.322;18.582;2023-06-22T05:40:35;20.54;70.91
69436;SHT31;56625;54.322;18.582;2023-06-22T05:43:01;20.42;70.09
69436;SHT31;56625;54.322;18.582;2023-06-22T05:45:28;20.36;70.17
69436;SHT31;56625;54.322;18.582;2023-06-22T05:47:55;20.36;69.31
69436;SHT31;56625;54.322;18.582;2023-06-22T05:50:22;20.39;69.35
69436;SHT31;56625;54.322;18.582;2023-06-22T05:52:48;20.48;69.25
69436;SHT31;56625;54.322;18.582;2023-06-22T05:55:15;20.66;68.88
69436;SHT31;56625;54.322;18.582;2023-06-22T05:57:44;20.90;68.02
69436;SHT31;56625;54.322;18.582;2023-06-22T06:00:11;21.08;67.38
69436;SHT31;56625;54.322;18.582;2023-06-22T06:02:39;21.24;66.97
69436;SHT31;56625;54.322;18.582;2023-06-22T06:05:12;21.31;66.33
69436;SHT31;56625;54.322;18.582;2023-06-22T06:07:42;21.35;66.20
69436;SHT31;56625;54.322;18.582;2023-06-22T06:10:09;21.43;66.21
69436;SHT31;56625;54.322;18.582;2023-06-22T06:12:36;21.46;65.91
69436;SHT31;56625;54.322;18.582;2023-06-22T06:15:03;21.48;65.44
69436;SHT31;56625;54.322;18.582;2023-06-22T06:17:31;21.45;65.57
69436;SHT31;56625;54.322;18.582;2023-06-22T06:20:01;21.40;65.55
69436;SHT31;56625;54.322;18.582;2023-06-22T06:22:29;21.35;65.76
69436;SHT31;56625;54.322;18.582;2023-06-22T06:24:56;21.36;65.45
69436;SHT31;56625;54.322;18.582;2023-06-22T06:27:23;21.32;65.11
69436;SHT31;56625;54.322;18.582;2023-06-22T06:29:55;21.32;65.26
69436;SHT31;56625;54.322;18.582;2023-06-22T06:32:22;21.32;65.18
69436;SHT31;56625;54.322;18.582;2023-06-22T06:34:49;21.39;64.73
69436;SHT31;56625;54.322;18.582;2023-06-22T06:37:16;21.39;64.81
69436;SHT31;56625;54.322;18.582;2023-06-22T06:39:44;21.39;64.98
69436;SHT31;56625;54.322;18.582;2023-06-22T06:42:11;21.49;64.99
69436;SHT31;56625;54.322;18.582;2023-06-22T06:44:37;21.74;64.37
69436;SHT31;56625;54.322;18.582;2023-06-22T06:47:04;21.91;62.41
69436;SHT31;56625;54.322;18.582;2023-06-22T06:49:33;22.00;61.80
69436;SHT31;56625;54.322;18.582;2023-06-22T06:52:00;22.10;61.41
69436;SHT31;56625;54.322;18.582;2023-06-22T06:54:26;22.33;60.40
69436;SHT31;56625;54.322;18.582;2023-06-22T06:56:53;22.45;59.06
69436;SHT31;56625;54.322;18.582;2023-06-22T06:59:20;22.53;59.31
69436;SHT31;56625;54.322;18.582;2023-06-22T07:01:47;22.64;58.22
69436;SHT31;56625;54.322;18.582;2023-06-22T07:04:15;22.53;58.32
69436;SHT31;56625;54.322;18.582;2023-06-22T07:06:41;22.55;58.76
69436;SHT31;56625;54.322;18.582;2023-06-22T07:09:09;22.70;58.59
69436;SHT31;56625;54.322;18.582;2023-06-22T07:11:35;22.87;58.19
69436;SHT31;56625;54.322;18.582;2023-06-22T07:14:02;22.90;57.21
69436;SHT31;56625;54.322;18.582;2023-06-22T07:16:29;22.91;57.53
69436;SHT31;56625;54.322;18.582;2023-06-22T07:18:57;23.03;56.79
69436;SHT31;56625;54.322;18.582;2023-06-22T07:21:24;23.08;56.20
69436;SHT31;56625;54.322;18.582;2023-06-22T07:23:50;23.13;55.16
69436;SHT31;56625;54.322;18.582;2023-06-22T07:26:17;23.09;55.30
69436;SHT31;56625;54.322;18.582;2023-06-22T07:28:44;23.13;55.52
69436;SHT31;56625;54.322;18.582;2023-06-22T07:31:10;23.23;55.10
69436;SHT31;56625;54.322;18.582;2023-06-22T07:33:37;23.30;55.52
69436;SHT31;56625;54.322;18.582;2023-06-22T07:36:04;23.44;54.82
69436;SHT31;56625;54.322;18.582;2023-06-22T07:38:34;23.51;54.83
69436;SHT31;56625;54.322;18.582;2023-06-22T07:41:01;23.54;53.70
69436;SHT31;56625;54.322;18.582;2023-06-22T07:43:31;23.44;53.87
69436;SHT31;56625;54.322;18.582;2023-06-22T07:46:00;23.45;54.02
69436;SHT31;56625;54.322;18.582;2023-06-22T07:48:27;23.52;54.09
69436;SHT31;56625;54.322;18.582;2023-06-22T07:50:53;23.61;53.71
69436;SHT31;56625;54.322;18.582;2023-06-22T07:53:20;23.73;53.46
69436;SHT31;56625;54.322;18.582;2023-06-22T07:55:48;23.89;53.50
69436;SHT31;56625;54.322;18.582;2023-06-22T07:58:16;23.96;51.99
69436;SHT31;56625;54.322;18.582;2023-06-22T08:00:45;23.95;51.70
69436;SHT31;56625;54.322;18.582;2023-06-22T08:03:11;24.04;51.40
69436;SHT31;56625;54.322;18.582;2023-06-22T08:05:38;24.16;51.00
69436;SHT31;56625;54.322;18.582;2023-06-22T08:08:05;24.23;49.95
69436;SHT31;56625;54.322;18.582;2023-06-22T08:10:32;24.19;49.70
69436;SHT31;56625;54.322;18.582;2023-06-22T08:12:59;24.14;49.37
69436;SHT31;56625;54.322;18.582;2023-06-22T08:15:26;23.99;49.69
69436;SHT31;56625;54.322;18.582;2023-06-22T08:17:53;24.00;50.14
69436;SHT31;56625;54.322;18.582;2023-06-22T08:20:20;24.06;50.40
69436;SHT31;56625;54.322;18.582;2023-06-22T08:22:47;24.27;50.19
69436;SHT31;56625;54.322;18.582;2023-06-22T08:25:14;24.42;49.45
69436;SHT31;56625;54.322;18.582;2023-06-22T08:27:44;24.32;49.31
69436;SHT31;56625;54.322;18.582;2023-06-22T08:30:13;24.27;49.86
69436;SHT31;56625;54.322;18.582;2023-06-22T08:32:41;24.30;49.72
69436;SHT31;56625;54.322;18.582;2023-06-22T08:35:08;24.49;49.76
69436;SHT31;56625;54.322;18.582;2023-06-22T08:37:35;24.62;49.36
69436;SHT31;56625;54.322;18.582;2023-06-22T08:40:03;24.74;49.36
69436;SHT31;56625;54.322;18.582;2023-06-22T08:42:36;25.01;48.81
69436;SHT31;56625;54.322;18.582;2023-06-22T08:45:04;25.22;48.77
69436;SHT31;56625;54.322;18.582;2023-06-22T08:47:31;25.36;48.44
69436;SHT31;56625;54.322;18.582;2023-06-22T08:49:58;25.47;47.65
69436;SHT31;56625;54.322;18.582;2023-06-22T08:52:25;25.49;47.69
69436;SHT31;56625;54.322;18.582;2023-06-22T08:54:52;25.41;45.96
69436;SHT31;56625;54.322;18.582;2023-06-22T08:57:18;25.25;46.29
69436;SHT31;56625;54.322;18.582;2023-06-22T08:59:45;25.25;46.13
69436;SHT31;56625;54.322;18.582;2023-06-22T09:02:12;25.25;45.68
69436;SHT31;56625;54.322;18.582;2023-06-22T09:04:38;25.20;45.85
69436;SHT31;56625;54.322;18.582;2023-06-22T09:07:06;25.36;46.59
69436;SHT31;56625;54.322;18.582;2023-06-22T09:09:32;25.74;46.47
69436;SHT31;56625;54.322;18.582;2023-06-22T09:11:59;25.88;45.44
69436;SHT31;56625;54.322;18.582;2023-06-22T09:14:25;25.79;46.33
69436;SHT31;56625;54.322;18.582;2023-06-22T09:16:52;25.91;46.08
69436;SHT31;56625;54.322;18.582;2023-06-22T09:19:19;25.90;46.43
69436;SHT31;56625;54.322;18.582;2023-06-22T09:21:45;25.92;44.77
69436;SHT31;56625;54.322;18.582;2023-06-22T09:24:12;25.90;44.09
69436;SHT31;56625;54.322;18.582;2023-06-22T09:26:39;26.05;44.06
69436;SHT31;56625;54.322;18.582;2023-06-22T09:29:06;26.25;41.67
69436;SHT31;56625;54.322;18.582;2023-06-22T09:31:32;26.25;42.44
69436;SHT31;56625;54.322;18.582;2023-06-22T09:33:59;26.32;42.25
69436;SHT31;56625;54.322;18.582;2023-06-22T09:36:26;26.41;42.66
69436;SHT31;56625;54.322;18.582;2023-06-22T09:38:53;26.66;42.67
69436;SHT31;56625;54.322;18.582;2023-06-22T09:41:24;26.83;42.14
69436;SHT31;56625;54.322;18.582;2023-06-22T09:43:51;26.74;42.07
69436;SHT31;56625;54.322;18.582;2023-06-22T09:46:21;26.76;42.38
69436;SHT31;56625;54.322;18.582;2023-06-22T09:48:51;26.92;41.58
69436;SHT31;56625;54.322;18.582;2023-06-22T09:51:17;26.84;41.34
69436;SHT31;56625;54.322;18.582;2023-06-22T09:53:46;26.66;41.99
69436;SHT31;56625;54.322;18.582;2023-06-22T09:56:12;26.63;42.06
69436;SHT31;56625;54.322;18.582;2023-06-22T09:58:44;26.59;42.83
69436;SHT31;56625;54.322;18.582;2023-06-22T10:01:13;26.80;43.42
69436;SHT31;56625;54.322;18.582;2023-06-22T10:03:42;27.00;42.16
69436;SHT31;56625;54.322;18.582;2023-06-22T10:06:09;26.79;42.15
69436;SHT31;56625;54.322;18.582;2023-06-22T10:08:36;26.56;42.93
69436;SHT31;56625;54.322;18.582;2023-06-22T10:11:03;26.60;43.18
69436;SHT31;56625;54.322;18.582;2023-06-22T10:13:30;26.77;42.57
69436;SHT31;56625;54.322;18.582;2023-06-22T10:15:56;26.84;42.30
69436;SHT31;56625;54.322;18.582;2023-06-22T10:18:23;26.99;42.24
69436;SHT31;56625;54.322;18.582;2023-06-22T10:20:50;27.14;41.97
69436;SHT31;56625;54.322;18.582;2023-06-22T10:23:18;27.25;42.29
69436;SHT31;56625;54.322;18.582;2023-06-22T10:25:48;27.42;41.87
69436;SHT31;56625;54.322;18.582;2023-06-22T10:28:15;27.54;41.15
69436;SHT31;56625;54.322;18.582;2023-06-22T10:30:42;27.31;41.45
69436;SHT31;56625;54.322;18.582;2023-06-22T10:33:11;27.19;41.86
69436;SHT31;56625;54.322;18.582;2023-06-22T10:35:38;27.17;41.97
69436;SHT31;56625;54.322;18.582;2023-06-22T10:38:05;27.29;42.29
69436;SHT31;56625;54.322;18.582;2023-06-22T10:40:32;27.39;41.95
69436;SHT31;56625;54.322;18.582;2023-06-22T10:42:59;27.38;41.74
69436;SHT31;56625;54.322;18.582;2023-06-22T10:45:26;27.21;41.74
69436;SHT31;56625;54.322;18.582;2023-06-22T10:47:54;26.99;41.92
69436;SHT31;56625;54.322;18.582;2023-06-22T10:50:20;26.98;41.91
69436;SHT31;56625;54.322;18.582;2023-06-22T10:52:50;26.98;42.06
69436;SHT31;56625;54.322;18.582;2023-06-22T10:55:19;27.20;42.25
69436;SHT31;56625;54.322;18.582;2023-06-22T10:57:46;27.49;41.09
69436;SHT31;56625;54.322;18.582;2023-06-22T11:00:13;27.71;40.16
69436;SHT31;56625;54.322;18.582;2023-06-22T11:02:41;27.82;39.43
69436;SHT31;56625;54.322;18.582;2023-06-22T11:05:08;27.95;39.53
69436;SHT31;56625;54.322;18.582;2023-06-22T11:07:35;28.10;39.19
69436;SHT31;56625;54.322;18.582;2023-06-22T11:10:08;28.01;39.37
69436;SHT31;56625;54.322;18.582;2023-06-22T11:12:35;28.21;39.92
69436;SHT31;56625;54.322;18.582;2023-06-22T11:15:01;28.31;38.49
69436;SHT31;56625;54.322;18.582;2023-06-22T11:17:28;28.35;38.34
69436;SHT31;56625;54.322;18.582;2023-06-22T11:19:55;28.36;38.18
69436;SHT31;56625;54.322;18.582;2023-06-22T11:22:21;28.10;38.94
69436;SHT31;56625;54.322;18.582;2023-06-22T11:24:48;28.09;39.24
69436;SHT31;56625;54.322;18.582;2023-06-22T11:27:15;28.01;38.66
69436;SHT31;56625;54.322;18.582;2023-06-22T11:29:41;27.80;38.92
69436;SHT31;56625;54.322;18.582;2023-06-22T11:32:08;28.00;39.34
69436;SHT31;56625;54.322;18.582;2023-06-22T11:34:38;28.20;38.43
69436;SHT31;56625;54.322;18.582;2023-06-22T11:37:04;28.17;37.81
69436;SHT31;56625;54.322;18.582;2023-06-22T11:39:31;28.08;37.92
69436;SHT31;56625;54.322;18.582;2023-06-22T11:42:09;28.03;38.51
69436;SHT31;56625;54.322;18.582;2023-06-22T11:44:36;28.08;37.96
69436;SHT31;56625;54.322;18.582;2023-06-22T11:47:03;28.19;38.40
69436;SHT31;56625;54.322;18.582;2023-06-22T11:49:30;28.45;38.56
69436;SHT31;56625;54.322;18.582;2023-06-22T11:51:58;28.56;37.26
69436;SHT31;56625;54.322;18.582;2023-06-22T11:54:25;28.52;37.27
69436;SHT31;56625;54.322;18.582;2023-06-22T11:56:51;28.56;36.36
69436;SHT31;56625;54.322;18.582;2023-06-22T11:59:18;28.55;35.64
69436;SHT31;56625;54.322;18.582;2023-06-22T12:01:45;28.65;35.64
69436;SHT31;56625;54.322;18.582;2023-06-22T12:04:12;28.85;35.68
69436;SHT31;56625;54.322;18.582;2023-06-22T12:06:40;29.15;35.07
69436;SHT31;56625;54.322;18.582;2023-06-22T12:09:09;29.42;35.06
69436;SHT31;56625;54.322;18.582;2023-06-22T12:11:36;29.43;34.06
69436;SHT31;56625;54.322;18.582;2023-06-22T12:14:03;29.24;34.77
69436;SHT31;56625;54.322;18.582;2023-06-22T12:16:30;29.33;34.97
69436;SHT31;56625;54.322;18.582;2023-06-22T12:18:58;29.34;34.59
69436;SHT31;56625;54.322;18.582;2023-06-22T12:21:25;29.25;35.45
69436;SHT31;56625;54.322;18.582;2023-06-22T12:23:51;29.32;37.35
69436;SHT31;56625;54.322;18.582;2023-06-22T12:26:18;29.30;39.74
69436;SHT31;56625;54.322;18.582;2023-06-22T12:28:44;29.18;40.55
69436;SHT31;56625;54.322;18.582;2023-06-22T12:31:11;29.28;40.75
69436;SHT31;56625;54.322;18.582;2023-06-22T12:33:38;29.38;40.98
69436;SHT31;56625;54.322;18.582;2023-06-22T12:36:05;29.26;41.00
69436;SHT31;56625;54.322;18.582;2023-06-22T12:38:32;29.09;41.46
69436;SHT31;56625;54.322;18.582;2023-06-22T12:40:59;29.00;41.67
69436;SHT31;56625;54.322;18.582;2023-06-22T12:43:25;28.95;41.75
69436;SHT31;56625;54.322;18.582;2023-06-22T12:45:52;28.83;42.37
69436;SHT31;56625;54.322;18.582;2023-06-22T12:48:21;28.75;42.73
69436;SHT31;56625;54.322;18.582;2023-06-22T12:50:52;28.79;42.38
69436;SHT31;56625;54.322;18.582;2023-06-22T12:53:21;28.69;42.23
69436;SHT31;56625;54.322;18.582;2023-06-22T12:55:51;28.61;42.47
69436;SHT31;56625;54.322;18.582;2023-06-22T12:58:22;28.43;42.43
69436;SHT31;56625;54.322;18.582;2023-06-22T13:00:49;28.33;42.68
69436;SHT31;56625;54.322;18.582;2023-06-22T13:03:15;28.41;42.79
69436;SHT31;56625;54.322;18.582;2023-06-22T13:05:43;28.35;42.55
69436;SHT31;56625;54.322;18.582;2023-06-22T13:08:09;28.14;43.07
69436;SHT31;56625;54.322;18.582;2023-06-22T13:10:38;28.07;43.34
69436;SHT31;56625;54.322;18.582;2023-06-22T13:13:05;28.16;43.08
69436;SHT31;56625;54.322;18.582;2023-06-22T13:15:32;28.21;42.88
69436;SHT31;56625;54.322;18.582;2023-06-22T13:18:00;28.27;42.78
69436;SHT31;56625;54.322;18.582;2023-06-22T13:20:28;28.27;43.11
69436;SHT31;56625;54.322;18.582;2023-06-22T13:22:55;28.24;43.11
69436;SHT31;56625;54.322;18.582;2023-06-22T13:25:23;28.13;42.64
69436;SHT31;56625;54.322;18.582;2023-06-22T13:27:52;28.09;42.98
69436;SHT31;56625;54.322;18.582;2023-06-22T13:30:19;28.13;42.72
69436;SHT31;56625;54.322;18.582;2023-06-22T13:32:46;28.09;42.61
69436;SHT31;56625;54.322;18.582;2023-06-22T13:35:12;28.03;43.26
69436;SHT31;56625;54.322;18.582;2023-06-22T13:37:39;28.03;43.02
69436;SHT31;56625;54.322;18.582;2023-06-22T13:40:09;27.95;43.01
69436;SHT31;56625;54.322;18.582;2023-06-22T13:42:43;27.91;43.18
69436;SHT31;56625;54.322;18.582;2023-06-22T13:45:09;27.92;43.40
69436;SHT31;56625;54.322;18.582;2023-06-22T13:47:36;27.85;43.82
69436;SHT31;56625;54.322;18.582;2023-06-22T13:50:03;27.82;43.90
69436;SHT31;56625;54.322;18.582;2023-06-22T13:52:30;27.79;44.01
69436;SHT31;56625;54.322;18.582;2023-06-22T13:54:57;27.78;43.98
69436;SHT31;56625;54.322;18.582;2023-06-22T13:57:24;27.70;44.22
69436;SHT31;56625;54.322;18.582;2023-06-22T13:59:50;27.60;44.88
69436;SHT31;56625;54.322;18.582;2023-06-22T14:02:17;27.56;44.76
69436;SHT31;56625;54.322;18.582;2023-06-22T14:04:44;27.49;44.88
69436;SHT31;56625;54.322;18.582;2023-06-22T14:07:10;27.40;45.07
69436;SHT31;56625;54.322;18.582;2023-06-22T14:09:38;27.31;44.91
69436;SHT31;56625;54.322;18.582;2023-06-22T14:12:05;27.17;45.12
69436;SHT31;56625;54.322;18.582;2023-06-22T14:14:33;26.93;45.79
69436;SHT31;56625;54.322;18.582;2023-06-22T14:17:00;26.71;46.35
69436;SHT31;56625;54.322;18.582;2023-06-22T14:19:27;26.58;46.63
69436;SHT31;56625;54.322;18.582;2023-06-22T14:21:53;26.56;46.54
69436;SHT31;56625;54.322;18.582;2023-06-22T14:24:20;26.48;46.61
69436;SHT31;56625;54.322;18.582;2023-06-22T14:26:50;26.32;46.64
69436;SHT31;56625;54.322;18.582;2023-06-22T14:29:17;26.24;47.20
69436;SHT31;56625;54.322;18.582;2023-06-22T14:31:44;26.31;47.15
69436;SHT31;56625;54.322;18.582;2023-06-22T14:34:13;26.29;46.89
69436;SHT31;56625;54.322;18.582;2023-06-22T14:36:40;26.13;47.24
69436;SHT31;56625;54.322;18.582;2023-06-22T14:39:07;25.95;47.52
69436;SHT31;56625;54.322;18.582;2023-06-22T14:41:35;25.94;47.77
69436;SHT31;56625;54.322;18.582;2023-06-22T14:44:01;26.04;47.57
69436;SHT31;56625;54.322;18.582;2023-06-22T14:46:28;26.12;47.52
69436;SHT31;56625;54.322;18.582;2023-06-22T14:48:55;26.15;47.49
69436;SHT31;56625;54.322;18.582;2023-06-22T14:51:22;26.08;47.33
69436;SHT31;56625;54.322;18.582;2023-06-22T14:53:48;26.05;47.57
69436;SHT31;56625;54.322;18.582;2023-06-22T14:56:15;26.07;47.32
69436;SHT31;56625;54.322;18.582;2023-06-22T14:58:42;26.08;47.41
69436;SHT31;56625;54.322;18.582;2023-06-22T15:01:16;26.13;47.45
69436;SHT31;56625;54.322;18.582;2023-06-22T15:03:44;26.14;47.38
69436;SHT31;56625;54.322;18.582;2023-06-22T15:06:11;26.12;47.63
69436;SHT31;56625;54.322;18.582;2023-06-22T15:08:38;26.17;47.65
69436;SHT31;56625;54.322;18.582;2023-06-22T15:11:08;26.21;47.28
69436;SHT31;56625;54.322;18.582;2023-06-22T15:13:35;26.21;47.17
69436;SHT31;56625;54.322;18.582;2023-06-22T15:16:05;26.18;47.30
69436;SHT31;56625;54.322;18.582;2023-06-22T15:18:33;26.11;47.31
69436;SHT31;56625;54.322;18.582;2023-06-22T15:21:02;26.06;47.29
69436;SHT31;56625;54.322;18.582;2023-06-22T15:23:30;26.02;47.30
69436;SHT31;56625;54.322;18.582;2023-06-22T15:25:58;26.00;47.09
69436;SHT31;56625;54.322;18.582;2023-06-22T15:28:28;26.06;47.20